Time;durP1;ratioP1;P1;durP2;ratioP2;P2;SDS_P1;SDS_P2;PMS_P1;PMS_P2;Temp;Humidity;BMP_temperature;BMP_pressure;BME280_temperature;BME280_humidity;BME280_pressure;Samples;Min_cycle;Max_cycle;Signal;HPM_P1;HPM_P2
2022/08/12 00:44:53;;;;;;;5.22;2.75;;;20.70;63.40;;;;;;5062199;28;20057;-81
2022/08/12 00:47:20;;;;;;;8.82;3.30;;;20.70;63.70;;;;;;5062891;28;20119;-80
2022/08/12 00:49:48;;;;;;;9.43;3.83;;;20.70;65.20;;;;;;5052752;28;20029;-82
2022/08/12 00:52:15;;;;;;;5.75;3.47;;;20.60;66.00;;;;;;5066663;28;20027;-82
2022/08/12 00:54:59;;;;;;;5.18;3.22;;;20.50;65.80;;;;;;5050334;28;20021;-80
2022/08/12 00:57:28;;;;;;;8.57;3.47;;;20.40;65.40;;;;;;5061700;28;20032;-79
2022/08/12 01:00:09;;;;;;;5.30;3.30;;;20.40;65.80;;;;;;5065514;28;20037;-79
2022/08/12 01:02:38;;;;;;;6.18;3.03;;;20.50;65.80;;;;;;5043797;28;20127;-81
2022/08/12 01:13:33;;;;;;;9.05;3.20;;;20.60;64.10;;;;;;5063247;28;20032;-81
2022/08/12 01:16:02;;;;;;;5.43;2.90;;;20.60;64.50;;;;;;5063287;28;20504;-80
2022/08/12 01:18:31;;;;;;;5.75;2.85;;;20.60;64.20;;;;;;5047414;28;20021;-83
2022/08/12 01:21:42;;;;;;;5.65;2.72;;;20.60;64.20;;;;;;5064510;28;20021;-82
2022/08/12 01:24:16;;;;;;;5.72;3.08;;;20.60;63.20;;;;;;5056621;28;20090;-82
2022/08/12 01:26:45;;;;;;;4.15;2.58;;;20.70;63.60;;;;;;5045694;28;20021;-85
2022/08/12 01:29:14;;;;;;;5.82;3.03;;;20.70;63.30;;;;;;5045342;28;20025;-82
2022/08/12 01:31:42;;;;;;;5.38;2.90;;;20.80;62.70;;;;;;5063747;28;20025;-80
2022/08/12 01:34:11;;;;;;;6.45;3.05;;;20.70;63.10;;;;;;5064021;28;20032;-80
2022/08/12 01:36:43;;;;;;;7.30;3.88;;;20.60;63.60;;;;;;5047705;28;20032;-80
2022/08/12 01:39:09;;;;;;;5.32;3.25;;;20.80;64.50;;;;;;5057353;28;20124;-81
2022/08/12 01:41:43;;;;;;;5.15;3.38;;;20.80;64.90;;;;;;5061922;28;20479;-79
2022/08/12 01:44:10;;;;;;;5.95;3.80;;;20.70;65.10;;;;;;5049575;28;20063;-81
2022/08/12 01:47:22;;;;;;;5.55;4.03;;;20.70;65.80;;;;;;5055913;28;20017;-80
2022/08/12 01:50:11;;;;;;;6.13;3.58;;;20.60;66.00;;;;;;5035795;28;20659;-81
2022/08/12 01:52:53;;;;;;;7.93;4.05;;;20.50;66.00;;;;;;5064719;28;20067;-81
2022/08/12 01:55:27;;;;;;;8.05;3.70;;;20.50;65.70;;;;;;5051224;28;20028;-82
2022/08/12 01:58:24;;;;;;;7.63;3.85;;;20.40;65.70;;;;;;5063462;28;20422;-78
2022/08/12 02:01:10;;;;;;;6.10;3.40;;;20.40;65.60;;;;;;5034129;28;20032;-80
2022/08/12 02:13:22;;;;;;;9.77;5.00;;;20.10;66.20;;;;;;5021418;28;20036;-80
2022/08/12 02:16:16;;;;;;;10.75;4.70;;;20.10;66.70;;;;;;5063610;28;20028;-82
2022/08/12 02:19:19;;;;;;;8.38;4.15;;;20.10;66.60;;;;;;5036764;28;20055;-82
2022/08/12 02:21:49;;;;;;;6.97;3.67;;;20.10;66.80;;;;;;5049172;28;20033;-81
2022/08/12 02:24:20;;;;;;;10.52;4.05;;;20.20;66.60;;;;;;5046596;28;20087;-83
2022/08/12 02:26:48;;;;;;;6.13;3.97;;;20.20;67.00;;;;;;5057383;28;20088;-82
2022/08/12 02:29:14;;;;;;;7.47;3.60;;;20.80;67.40;;;;;;5030006;28;20022;-83
2022/08/12 02:31:42;;;;;;;5.85;3.70;;;20.10;66.60;;;;;;5043247;28;20028;-80
2022/08/12 02:34:11;;;;;;;5.38;3.50;;;20.10;66.40;;;;;;5036100;28;20774;-80
2022/08/12 02:36:39;;;;;;;5.90;3.00;;;20.10;66.20;;;;;;5054313;28;20040;-81
2022/08/12 02:39:07;;;;;;;5.82;3.03;;;20.10;64.40;;;;;;5043695;28;20025;-80
2022/08/12 02:41:35;;;;;;;5.78;3.30;;;20.20;64.80;;;;;;5048807;28;20173;-79
2022/08/12 02:44:07;;;;;;;7.25;2.90;;;20.20;64.50;;;;;;5045916;28;20470;-80
2022/08/12 02:46:34;;;;;;;5.55;2.78;;;20.20;65.00;;;;;;5041547;28;20484;-80
2022/08/12 02:49:08;;;;;;;4.38;3.08;;;20.20;64.10;;;;;;5051932;28;20030;-82
2022/08/12 02:51:38;;;;;;;3.63;2.60;;;20.30;64.10;;;;;;5038276;28;20120;-80
2022/08/12 02:54:06;;;;;;;5.10;2.80;;;20.40;62.60;;;;;;5055555;28;20019;-83
2022/08/12 02:56:37;;;;;;;4.85;3.03;;;20.40;63.00;;;;;;5044096;28;20053;-80
2022/08/12 02:59:03;;;;;;;4.45;2.88;;;20.40;63.20;;;;;;5051797;28;20146;-81
2022/08/12 03:01:32;;;;;;;4.28;3.00;;;20.40;63.70;;;;;;5055126;28;20037;-83
2022/08/12 03:04:00;;;;;;;5.80;2.92;;;20.40;64.60;;;;;;5041795;28;20490;-80
2022/08/12 03:06:32;;;;;;;5.85;3.33;;;20.30;64.80;;;;;;5029073;28;20037;-82
2022/08/12 03:08:59;;;;;;;6.82;3.03;;;;;;;;;;5051750;28;20025;-81
2022/08/12 03:11:45;;;;;;;7.28;2.90;;;20.30;64.00;;;;;;5039933;28;20032;-82
2022/08/12 03:14:13;;;;;;;4.90;3.03;;;20.30;63.50;;;;;;5023248;28;20479;-82
2022/08/12 03:16:40;;;;;;;4.78;2.60;;;;;;;;;;5058475;28;20045;-81
2022/08/12 03:19:06;;;;;;;5.30;2.67;;;20.30;63.20;;;;;;5031785;28;20025;-82
2022/08/12 03:21:36;;;;;;;5.22;2.80;;;20.30;63.90;;;;;;5058857;28;20032;-78
2022/08/12 03:24:08;;;;;;;5.85;3.10;;;20.30;63.20;;;;;;5057689;28;20029;-79
2022/08/12 03:26:35;;;;;;;4.75;2.80;;;20.30;63.80;;;;;;5040434;28;20096;-80
2022/08/12 03:29:05;;;;;;;5.60;2.60;;;20.30;62.90;;;;;;5047403;28;20594;-81
2022/08/12 03:31:32;;;;;;;;;;;21.70;64.10;;;;;;5039522;28;20033;-79
2022/08/12 03:34:07;;;;;;;6.35;3.13;;;20.30;63.00;;;;;;5056404;28;19940;-82
2022/08/12 03:36:35;;;;;;;4.63;2.70;;;20.30;62.90;;;;;;5040583;28;20021;-81
2022/08/12 03:42:05;;;;;;;5.43;2.78;;;20.30;63.40;;;;;;5068218;28;20040;-85
2022/08/12 04:01:26;;;;;;;5.20;3.30;;;20.40;63.10;;;;;;5058628;28;20111;-83
2022/08/12 04:03:53;;;;;;;4.15;2.50;;;20.30;63.00;;;;;;5041924;28;20056;-84
2022/08/12 04:06:25;;;;;;;6.97;3.33;;;20.30;63.30;;;;;;5048509;28;20025;-82
2022/08/12 04:08:52;;;;;;;6.15;2.75;;;20.40;63.10;;;;;;5038666;28;20533;-82
2022/08/12 04:14:11;;;;;;;7.93;3.20;;;20.30;62.90;;;;;;5057645;28;20043;-83
2022/08/12 04:16:38;;;;;;;5.05;3.03;;;20.30;63.40;;;;;;5068065;28;20044;-81
2022/08/12 04:19:05;;;;;;;5.80;2.83;;;20.30;63.10;;;;;;5050146;28;20029;-83
2022/08/12 04:21:32;;;;;;;5.03;2.63;;;20.20;63.40;;;;;;5050302;28;20031;-82
2022/08/12 04:23:59;;;;;;;5.13;2.85;;;20.20;63.40;;;;;;5048576;28;20032;-81
2022/08/12 04:26:26;;;;;;;4.53;2.70;;;20.10;63.80;;;;;;5062235;28;20467;-79
2022/08/12 04:28:55;;;;;;;5.05;2.97;;;20.50;64.10;;;;;;5042178;28;20026;-82
2022/08/12 04:31:36;;;;;;;4.88;2.63;;;20.10;64.00;;;;;;5061527;28;20021;-81
2022/08/12 04:34:03;;;;;;;5.15;2.67;;;20.10;63.60;;;;;;5047767;28;20057;-81
2022/08/12 04:36:30;;;;;;;4.18;2.80;;;20.00;64.10;;;;;;5043878;28;20021;-81
2022/08/12 04:38:57;;;;;;;5.45;2.90;;;20.00;64.10;;;;;;5045972;28;20052;-80
2022/08/12 04:41:24;;;;;;;4.65;2.70;;;20.00;64.90;;;;;;5064425;28;20048;-83
2022/08/12 04:43:50;;;;;;;7.97;2.97;;;19.90;64.10;;;;;;5046774;28;20059;-81
2022/08/12 04:46:16;;;;;;;6.20;3.28;;;;;;;;;;5065435;28;20033;-84
2022/08/12 04:48:42;;;;;;;4.53;2.75;;;19.90;64.50;;;;;;5063910;28;20025;-81
2022/08/12 04:51:08;;;;;;;6.45;2.83;;;;;;;;;;5054089;28;20025;-82
2022/08/12 04:53:34;;;;;;;5.13;2.95;;;;;;;;;;5047776;28;20024;-81
2022/08/12 04:56:00;;;;;;;6.68;2.75;;;19.90;64.20;;;;;;5046915;28;20021;-80
2022/08/12 04:58:26;;;;;;;5.95;2.67;;;;;;;;;;5048201;28;20055;-83
2022/08/12 05:00:52;;;;;;;5.32;2.80;;;;;;;;;;5062680;28;20033;-83
2022/08/12 05:03:19;;;;;;;6.05;2.75;;;20.00;64.20;;;;;;5034347;28;20028;-80
2022/08/12 05:05:45;;;;;;;8.50;3.30;;;;;;;;;;5036772;28;20111;-81
2022/08/12 05:08:15;;;;;;;7.95;3.10;;;20.00;64.10;;;;;;5060282;28;20057;-84
2022/08/12 05:10:45;;;;;;;5.80;2.90;;;20.00;64.50;;;;;;5048460;28;20478;-80
2022/08/12 05:13:14;;;;;;;;;;;20.20;63.80;;;;;;5039566;28;20034;-81
2022/08/12 05:15:41;;;;;;;4.20;2.50;;;20.20;64.20;;;;;;5039491;28;19924;-80
2022/08/12 05:18:06;;;;;;;3.50;2.55;;;20.20;64.00;;;;;;5048170;28;20036;-79
2022/08/12 05:20:33;;;;;;;5.70;2.70;;;20.50;63.50;;;;;;5067132;28;20025;-84
2022/08/12 05:23:12;;;;;;;3.75;2.70;;;20.50;63.50;;;;;;5046112;28;20126;-86
2022/08/12 05:25:42;;;;;;;5.13;2.85;;;20.40;63.90;;;;;;5045041;28;20483;-84
2022/08/12 05:28:09;;;;;;;4.10;2.80;;;20.40;63.80;;;;;;5050437;28;20033;-84
2022/08/12 05:30:35;;;;;;;5.05;3.10;;;20.50;64.00;;;;;;5068695;28;20028;-84
2022/08/12 05:33:04;;;;;;;4.95;2.67;;;20.30;63.60;;;;;;5060694;28;20021;-83
2022/08/12 05:35:38;;;;;;;3.45;2.50;;;20.30;64.00;;;;;;5045478;28;20063;-83
2022/08/12 05:40:54;;;;;;;6.10;2.80;;;20.40;64.80;;;;;;5062663;28;20040;-83
2022/08/12 05:43:20;;;;;;;5.93;3.10;;;20.40;63.80;;;;;;5065080;28;20055;-84
2022/08/12 05:45:46;;;;;;;6.90;2.80;;;20.40;64.20;;;;;;5062405;28;20107;-82
2022/08/12 05:48:12;;;;;;;5.25;2.70;;;20.50;64.40;;;;;;5063628;28;20021;-82
2022/08/12 05:50:39;;;;;;;6.43;3.08;;;20.70;63.80;;;;;;5064102;28;20048;-83
2022/08/12 05:53:05;;;;;;;6.95;2.80;;;21.50;62.20;;;;;;5064126;28;20029;-79
2022/08/12 05:55:32;;;;;;;6.40;2.70;;;21.50;62.60;;;;;;5065635;28;20571;-84
2022/08/12 05:57:58;;;;;;;5.43;2.60;;;22.10;61.80;;;;;;5048604;28;20053;-83
2022/08/12 06:00:25;;;;;;;7.38;3.10;;;22.70;60.10;;;;;;5057698;28;20029;-82
2022/08/12 06:03:01;;;;;;;7.68;2.95;;;23.20;59.10;;;;;;5066295;28;20028;-82
2022/08/12 06:05:34;;;;;;;10.13;2.60;;;23.50;57.50;;;;;;5049523;28;20116;-80
2022/08/12 06:08:01;;;;;;;9.35;3.03;;;23.70;57.10;;;;;;5066944;28;20029;-80
2022/08/12 06:10:26;;;;;;;5.85;2.60;;;23.60;57.70;;;;;;5051667;28;20021;-82
2022/08/12 06:12:55;;;;;;;6.07;2.78;;;;;;;;;;5057212;28;20028;-83
2022/08/12 06:15:21;;;;;;;7.93;3.15;;;23.20;58.10;;;;;;5065618;28;20033;-81
2022/08/12 06:17:47;;;;;;;5.72;2.20;;;;;;;;;;5045709;28;20041;-81
2022/08/12 06:20:14;;;;;;;4.82;2.78;;;22.60;58.90;;;;;;5057580;28;20037;-82
2022/08/12 06:22:44;;;;;;;4.25;2.33;;;22.50;59.00;;;;;;5055755;28;20045;-81
2022/08/12 06:25:12;;;;;;;9.20;2.55;;;22.50;59.10;;;;;;5048849;28;20025;-82
2022/08/12 06:27:58;;;;;;;4.68;2.47;;;22.30;59.70;;;;;;5069153;28;20039;-81
2022/08/12 06:30:25;;;;;;;4.47;2.20;;;22.30;59.90;;;;;;5059629;28;20574;-79
2022/08/12 06:32:51;;;;;;;7.07;2.75;;;22.30;60.30;;;;;;5061492;28;20482;-80
2022/08/12 06:35:17;;;;;;;8.40;2.85;;;22.50;59.80;;;;;;5062591;28;20017;-80
2022/08/12 06:37:50;;;;;;;4.90;2.65;;;22.50;60.00;;;;;;5041957;28;20028;-81
2022/08/12 06:43:04;;;;;;;3.95;2.42;;;22.70;59.60;;;;;;5062882;28;20070;-82
2022/08/12 06:45:30;;;;;;;8.63;2.53;;;22.70;59.60;;;;;;5045365;28;20029;-81
2022/08/12 06:47:58;;;;;;;5.00;2.55;;;22.70;60.00;;;;;;5061299;28;20021;-82
2022/08/12 06:50:25;;;;;;;6.65;2.40;;;22.70;59.90;;;;;;5043332;28;20041;-80
2022/08/12 06:52:51;;;;;;;5.57;2.40;;;22.80;60.40;;;;;;5056348;28;20048;-82
2022/08/12 06:55:24;;;;;;;3.97;2.40;;;;;;;;;;5056463;28;20077;-79
2022/08/12 06:58:00;;;;;;;4.50;2.50;;;23.00;59.40;;;;;;5060213;28;20029;-78
2022/08/12 07:00:32;;;;;;;4.78;2.13;;;23.20;59.80;;;;;;5047209;28;20067;-84
2022/08/12 07:02:59;;;;;;;4.75;2.45;;;23.20;59.20;;;;;;5059121;28;20021;-79
2022/08/12 07:05:25;;;;;;;5.32;2.15;;;23.20;58.80;;;;;;5056771;28;20407;-81
2022/08/12 07:07:54;;;;;;;7.60;2.33;;;23.00;59.40;;;;;;5046973;28;20021;-82
2022/08/12 07:10:24;;;;;;;4.07;2.40;;;23.10;59.50;;;;;;5048302;28;20021;-78
2022/08/12 07:12:53;;;;;;;6.75;2.17;;;;;;;;;;5032114;28;20030;-81
2022/08/12 07:15:24;;;;;;;6.20;2.40;;;23.40;58.30;;;;;;5057929;28;20060;-79
2022/08/12 07:17:58;;;;;;;7.93;2.90;;;23.50;58.60;;;;;;5043964;28;20040;-81
2022/08/12 07:20:23;;;;;;;7.55;2.20;;;23.50;58.60;;;;;;5030431;28;20032;-81
2022/08/12 07:22:49;;;;;;;7.95;2.38;;;23.60;58.70;;;;;;5059241;28;20028;-79
2022/08/12 07:25:31;;;;;;;4.57;2.42;;;;;;;;;;5029526;28;20557;-80
2022/08/12 07:28:00;;;;;;;4.50;2.53;;;23.70;58.30;;;;;;5049673;28;20429;-83
2022/08/12 07:30:27;;;;;;;3.73;2.27;;;23.90;58.40;;;;;;5060076;28;20028;-79
2022/08/12 07:32:53;;;;;;;3.35;2.28;;;;;;;;;;5063191;28;20052;-80
2022/08/12 07:35:19;;;;;;;4.15;2.10;;;24.10;57.70;;;;;;5063589;28;20134;-82
2022/08/12 07:37:48;;;;;;;3.10;2.03;;;24.20;58.10;;;;;;5059859;28;20033;-81
2022/08/12 07:40:15;;;;;;;3.13;2.05;;;24.20;57.80;;;;;;5045630;28;20036;-83
2022/08/12 07:42:42;;;;;;;4.75;2.20;;;;;;;;;;5042301;28;20091;-79
2022/08/12 07:45:10;;;;;;;6.25;2.30;;;24.50;57.20;;;;;;5046894;28;20051;-82
2022/08/12 07:47:36;;;;;;;10.60;2.38;;;24.60;57.00;;;;;;5062825;28;20025;-81
2022/08/12 07:50:08;;;;;;;4.28;2.55;;;24.70;57.00;;;;;;5065014;28;20025;-81
2022/08/12 07:52:40;;;;;;;3.50;2.03;;;24.70;56.50;;;;;;5066853;28;20021;-82
2022/08/12 07:55:06;;;;;;;7.78;2.40;;;24.70;56.60;;;;;;5048385;28;20081;-82
2022/08/12 07:57:32;;;;;;;5.40;2.22;;;;;;;;;;5048967;28;20040;-84
2022/08/12 08:00:03;;;;;;;5.60;2.28;;;25.00;56.70;;;;;;5057365;28;20025;-82
2022/08/12 08:02:32;;;;;;;6.93;2.58;;;25.10;57.60;;;;;;5049327;28;20025;-84
2022/08/12 08:04:59;;;;;;;4.13;2.10;;;;;;;;;;5067208;28;20096;-82
2022/08/12 08:07:26;;;;;;;3.85;2.30;;;25.40;55.80;;;;;;5061846;28;20097;-83
2022/08/12 08:09:57;;;;;;;5.63;2.00;;;25.40;56.00;;;;;;5052675;28;20055;-82
2022/08/12 08:15:09;;;;;;;4.55;2.17;;;25.50;55.70;;;;;;5060768;28;20036;-81
2022/08/12 08:17:37;;;;;;;4.22;2.17;;;25.60;55.70;;;;;;5060441;28;20451;-81
2022/08/12 08:20:05;;;;;;;4.35;2.05;;;25.60;56.10;;;;;;5043662;28;20036;-82
2022/08/12 08:22:33;;;;;;;6.22;2.20;;;;;;;;;;5041071;28;20026;-79
2022/08/12 08:24:59;;;;;;;3.17;2.05;;;;;;;;;;5039299;28;20029;-81
2022/08/12 08:27:25;;;;;;;5.20;2.30;;;25.80;55.00;;;;;;5047236;28;20045;-82
2022/08/12 08:29:51;;;;;;;4.32;2.00;;;;;;;;;;5053206;28;20048;-81
2022/08/12 08:32:16;;;;;;;3.28;2.03;;;26.00;54.90;;;;;;5050916;28;20032;-80
2022/08/12 08:34:44;;;;;;;6.55;2.65;;;26.00;54.80;;;;;;5067718;28;20025;-80
2022/08/12 08:37:14;;;;;;;7.85;2.60;;;;;;;;;;5049997;28;20025;-82
2022/08/12 08:39:40;;;;;;;4.53;2.22;;;26.20;54.60;;;;;;5063250;28;20043;-80
2022/08/12 08:44:50;;;;;;;6.20;2.38;;;26.70;54.30;;;;;;5051275;28;20110;-81
2022/08/12 08:47:16;;;;;;;3.63;2.22;;;26.70;54.70;;;;;;5059571;28;20033;-79
2022/08/12 08:49:42;;;;;;;2.70;2.10;;;26.90;54.00;;;;;;5063941;28;20024;-81
2022/08/12 08:52:09;;;;;;;5.60;1.83;;;27.00;53.70;;;;;;5063310;28;20013;-82
2022/08/12 08:54:36;;;;;;;3.38;2.05;;;;;;;;;;5040570;28;20021;-80
2022/08/12 08:57:04;;;;;;;3.35;2.10;;;27.10;53.30;;;;;;5038349;28;20481;-82
2022/08/12 08:59:30;;;;;;;6.38;2.38;;;27.20;53.40;;;;;;5047139;28;20296;-82
2022/08/12 09:01:56;;;;;;;3.47;2.00;;;27.20;53.20;;;;;;5051557;28;20045;-79
2022/08/12 09:04:23;;;;;;;7.05;2.17;;;27.20;53.00;;;;;;5043752;28;20021;-81
2022/08/12 09:06:57;;;;;;;4.90;2.45;;;27.30;53.10;;;;;;5046231;28;20092;-81
2022/08/12 09:09:23;;;;;;;7.20;2.00;;;27.20;53.00;;;;;;5059416;28;20025;-82
2022/08/12 09:14:33;;;;;;;3.47;2.40;;;27.30;52.90;;;;;;5058142;28;20036;-81
2022/08/12 09:16:59;;;;;;;3.05;1.90;;;27.40;53.70;;;;;;5060059;28;20029;-80
2022/08/12 09:19:25;;;;;;;5.43;2.00;;;27.50;53.20;;;;;;5055835;28;20032;-82
2022/08/12 09:21:51;;;;;;;4.63;2.22;;;27.60;52.20;;;;;;5047187;28;20032;-82
2022/08/12 09:24:18;;;;;;;3.97;2.22;;;27.60;52.30;;;;;;5050284;28;20032;-81
2022/08/12 09:26:45;;;;;;;4.88;2.25;;;27.70;52.80;;;;;;5049492;28;20558;-82
2022/08/12 09:29:15;;;;;;;4.35;2.22;;;27.80;52.40;;;;;;5047197;28;20036;-81
2022/08/12 09:31:41;;;;;;;3.50;2.10;;;;;;;;;;5056144;28;20114;-79
2022/08/12 09:34:09;;;;;;;3.50;2.20;;;28.20;52.70;;;;;;5042356;28;20067;-80
2022/08/12 09:36:37;;;;;;;2.80;1.83;;;;;;;;;;5035437;28;20022;-80
2022/08/12 09:39:05;;;;;;;7.03;1.90;;;28.30;51.80;;;;;;5053627;28;20025;-79
2022/08/12 09:41:38;;;;;;;4.00;1.63;;;28.50;51.60;;;;;;5053834;28;20021;-80
2022/08/12 09:46:47;;;;;;;3.55;1.73;;;28.60;50.30;;;;;;5052676;28;20032;-82
2022/08/12 09:49:13;;;;;;;2.75;1.77;;;28.60;50.20;;;;;;5060884;28;20478;-81
2022/08/12 09:51:40;;;;;;;4.25;1.88;;;28.70;50.40;;;;;;5060887;28;20029;-81
2022/08/12 09:54:11;;;;;;;3.00;1.70;;;;;;;;;;5039332;28;20013;-81
2022/08/12 09:56:38;;;;;;;4.60;2.08;;;28.90;49.30;;;;;;5055606;28;20022;-82
2022/08/12 09:59:07;;;;;;;4.32;1.90;;;;;;;;;;5038060;28;20035;-81
2022/08/12 10:01:37;;;;;;;2.65;1.70;;;;;;;;;;5040425;28;20017;-81
2022/08/12 10:04:08;;;;;;;4.93;1.85;;;29.00;48.80;;;;;;5056620;28;20028;-81
2022/08/12 10:06:34;;;;;;;3.10;1.55;;;29.00;48.90;;;;;;5051813;28;20029;-82
2022/08/12 10:09:00;;;;;;;3.95;1.85;;;28.80;49.00;;;;;;5044445;28;20025;-81
2022/08/12 10:14:10;;;;;;;5.55;2.03;;;28.70;48.40;;;;;;5065123;28;20087;-82
2022/08/12 10:16:42;;;;;;;3.22;1.90;;;28.80;49.00;;;;;;5040531;28;20036;-83
2022/08/12 10:19:08;;;;;;;3.78;1.77;;;29.00;49.00;;;;;;5065499;28;20029;-82
2022/08/12 10:21:37;;;;;;;2.97;1.60;;;28.70;48.00;;;;;;5065529;28;20017;-83
2022/08/12 10:24:03;;;;;;;4.38;1.70;;;29.30;47.80;;;;;;5046962;28;20021;-83
2022/08/12 10:31:59;;;;;;;3.65;1.90;;;29.20;48.80;;;;;;5060824;28;20184;-85
2022/08/12 10:34:25;;;;;;;4.20;2.15;;;29.30;50.30;;;;;;5063208;28;20025;-85
2022/08/12 10:37:03;;;;;;;2.95;1.70;;;29.30;51.90;;;;;;5063974;28;20025;-83
2022/08/12 10:39:33;;;;;;;3.00;1.70;;;29.30;47.90;;;;;;5047888;28;20032;-82
2022/08/12 10:44:45;;;;;;;3.22;1.77;;;;;;;;;;5053592;28;20063;-81
2022/08/12 10:47:11;;;;;;;2.67;1.65;;;;;;;;;;5036365;28;20025;-82
2022/08/12 10:49:37;;;;;;;2.97;1.60;;;;;;;;;;5035772;28;20204;-79
2022/08/12 10:52:04;;;;;;;3.38;1.85;;;29.70;47.10;;;;;;5036356;28;20021;-82
2022/08/12 10:54:30;;;;;;;4.15;1.98;;;;;;;;;;5026407;28;20127;-83
2022/08/12 10:56:59;;;;;;;4.47;1.63;;;29.60;46.10;;;;;;5055523;28;20025;-83
2022/08/12 10:59:25;;;;;;;4.47;1.60;;;;;;;;;;5031514;28;20044;-81
2022/08/12 11:01:52;;;;;;;4.10;1.77;;;;;;;;;;5054954;28;20029;-82
2022/08/12 11:04:18;;;;;;;7.13;2.05;;;;;;;;;;5057850;28;20029;-81
2022/08/12 11:06:49;;;;;;;2.85;1.75;;;29.60;46.40;;;;;;5059666;28;20112;-82
2022/08/12 11:09:20;;;;;;;3.35;1.80;;;29.60;46.30;;;;;;5058749;28;20089;-80
2022/08/12 11:11:47;;;;;;;1.98;1.65;;;29.60;46.90;;;;;;5058601;28;20036;-82
2022/08/12 11:14:18;;;;;;;4.63;1.98;;;29.80;46.90;;;;;;5042185;28;20017;-81
2022/08/12 11:16:44;;;;;;;4.72;1.75;;;;;;;;;;5056318;28;20058;-80
2022/08/12 11:19:12;;;;;;;4.63;1.90;;;30.10;46.70;;;;;;5049324;28;20158;-81
2022/08/12 11:21:38;;;;;;;2.75;1.50;;;30.40;46.40;;;;;;5050933;28;20017;-83
2022/08/12 11:24:04;;;;;;;3.58;1.77;;;;;;;;;;5057587;28;20022;-83
2022/08/12 11:26:31;;;;;;;4.20;2.05;;;;;;;;;;5056895;28;20068;-83
2022/08/12 11:28:56;;;;;;;4.20;1.70;;;;;;;;;;5058250;28;20059;-82
2022/08/12 11:31:23;;;;;;;4.45;1.95;;;;;;;;;;5045331;28;20025;-85
2022/08/12 11:33:49;;;;;;;2.47;1.75;;;30.50;47.30;;;;;;5045243;28;20079;-82
2022/08/12 11:36:15;;;;;;;4.25;1.77;;;30.50;46.40;;;;;;5034542;28;20045;-82
2022/08/12 11:38:41;;;;;;;2.58;1.80;;;30.40;46.30;;;;;;5054441;28;20045;-83
2022/08/12 11:41:07;;;;;;;2.72;1.75;;;;;;;;;;5046689;28;20051;-83
2022/08/12 11:43:33;;;;;;;1.85;1.35;;;30.40;46.20;;;;;;5051117;28;20036;-83
2022/08/12 11:45:59;;;;;;;4.00;1.73;;;30.40;46.90;;;;;;5057486;28;20026;-81
2022/08/12 11:48:25;;;;;;;4.15;1.85;;;30.70;46.10;;;;;;5059733;28;20033;-81
2022/08/12 11:50:51;;;;;;;3.78;1.70;;;;;;;;;;5066460;28;20077;-81
2022/08/12 11:53:17;;;;;;;3.88;1.73;;;;;;;;;;5054767;28;20005;-81
2022/08/12 11:55:43;;;;;;;7.13;1.33;;;;;;;;;;5062603;28;20056;-83
2022/08/12 11:58:09;;;;;;;3.42;2.00;;;30.50;45.60;;;;;;5053688;28;20089;-83
2022/08/12 12:00:36;;;;;;;5.65;1.75;;;;;;;;;;5057383;28;20036;-83
2022/08/12 12:03:02;;;;;;;3.67;1.73;;;;;;;;;;5053052;28;20032;-82
2022/08/12 12:05:27;;;;;;;4.22;1.52;;;30.70;45.00;;;;;;5042289;28;20049;-80
2022/08/12 12:07:53;;;;;;;2.67;1.70;;;;;;;;;;5054637;28;20036;-83
2022/08/12 12:10:19;;;;;;;4.13;1.55;;;;;;;;;;5047018;28;20083;-83
2022/08/12 12:12:46;;;;;;;2.47;1.73;;;;;;;;;;5049166;28;20025;-81
2022/08/12 12:15:12;;;;;;;4.45;1.60;;;30.60;45.00;;;;;;5060320;28;20116;-81
2022/08/12 12:17:40;;;;;;;7.45;1.77;;;30.80;44.50;;;;;;5043719;28;20021;-83
2022/08/12 12:20:09;;;;;;;2.40;1.50;;;30.80;44.90;;;;;;5030300;28;20053;-81
2022/08/12 12:22:39;;;;;;;6.80;1.67;;;31.00;45.00;;;;;;5041834;28;20040;-82
2022/08/12 12:25:05;;;;;;;6.60;2.00;;;31.10;43.80;;;;;;5061362;28;20029;-80
2022/08/12 12:27:49;;;;;;;4.30;1.60;;;31.30;45.10;;;;;;5040041;28;20029;-81
2022/08/12 12:30:16;;;;;;;5.43;1.60;;;;;;;;;;5034323;28;20024;-83
2022/08/12 12:32:42;;;;;;;6.40;2.08;;;31.30;43.70;;;;;;5046982;28;20097;-83
2022/08/12 12:35:08;;;;;;;3.17;1.70;;;31.30;44.10;;;;;;5057281;28;20029;-82
2022/08/12 12:37:34;;;;;;;2.47;1.60;;;31.10;43.70;;;;;;5059042;28;20071;-81
2022/08/12 12:40:00;;;;;;;6.03;1.38;;;;;;;;;;5042113;28;20112;-81
2022/08/12 12:42:26;;;;;;;2.20;1.73;;;;;;;;;;5043587;28;20105;-82
2022/08/12 12:44:51;;;;;;;10.02;1.95;;;31.20;45.10;;;;;;5065171;28;20048;-82
2022/08/12 12:47:17;;;;;;;2.20;1.48;;;;;;;;;;5064299;28;20038;-82
2022/08/12 12:49:43;;;;;;;4.30;1.50;;;;;;;;;;5045584;28;20029;-82
2022/08/12 12:52:09;;;;;;;4.53;1.83;;;;;;;;;;5048207;28;20017;-83
2022/08/12 12:54:35;;;;;;;3.30;1.70;;;;;;;;;;5060006;28;20471;-84
2022/08/12 12:57:01;;;;;;;2.88;1.60;;;31.40;44.10;;;;;;5044745;28;20024;-82
2022/08/12 12:59:27;;;;;;;4.95;1.90;;;31.30;43.90;;;;;;5061056;28;20079;-83
2022/08/12 13:01:53;;;;;;;6.28;1.80;;;31.30;43.80;;;;;;5020685;28;20032;-80
2022/08/12 13:04:19;;;;;;;6.25;1.80;;;;;;;;;;5044286;28;20470;-81
2022/08/12 13:06:50;;;;;;;3.90;1.70;;;;;;;;;;5053132;28;20040;-81
2022/08/12 13:09:17;;;;;;;6.03;1.83;;;31.60;43.70;;;;;;5057423;28;20021;-80
2022/08/12 13:11:42;;;;;;;2.85;1.50;;;31.40;44.50;;;;;;5036507;28;20053;-82
2022/08/12 13:14:14;;;;;;;4.30;1.75;;;31.40;43.80;;;;;;5057742;28;20024;-83
2022/08/12 13:16:42;;;;;;;4.03;1.58;;;31.50;44.40;;;;;;5042765;28;20056;-82
2022/08/12 13:19:08;;;;;;;3.20;1.65;;;;;;;;;;5057858;28;20025;-83
2022/08/12 13:22:14;;;;;;;1.90;1.50;;;;;;;;;;5038267;28;20028;-81
2022/08/12 13:24:20;;;;;;;3.80;1.58;;;31.50;43.80;;;;;;5054400;28;20190;-79
2022/08/12 13:26:45;;;;;;;4.75;2.05;;;31.50;44.30;;;;;;5058564;28;20052;-81
2022/08/12 13:29:11;;;;;;;4.22;1.70;;;31.50;44.80;;;;;;5054897;28;20017;-83
2022/08/12 13:31:37;;;;;;;5.28;1.58;;;31.30;44.10;;;;;;5035430;28;20047;-81
2022/08/12 13:34:04;;;;;;;4.22;1.80;;;31.20;44.20;;;;;;5067656;28;20081;-81
2022/08/12 13:36:29;;;;;;;2.40;1.58;;;31.30;44.80;;;;;;5058669;28;20013;-81
2022/08/12 13:38:56;;;;;;;8.35;1.63;;;31.30;44.60;;;;;;5054087;28;20040;-83
2022/08/12 13:41:35;;;;;;;5.18;2.00;;;31.30;45.10;;;;;;5062289;28;20033;-82
2022/08/12 13:44:08;;;;;;;3.30;1.50;;;31.40;44.10;;;;;;5053021;28;20044;-80
2022/08/12 13:46:39;;;;;;;4.45;1.70;;;;;;;;;;5056629;28;20025;-80
2022/08/12 13:49:07;;;;;;;4.88;2.05;;;31.50;43.90;;;;;;5056506;28;20108;-82
2022/08/12 13:51:34;;;;;;;6.88;1.88;;;;;;;;;;5054841;28;20017;-81
2022/08/12 13:54:03;;;;;;;3.72;1.90;;;31.30;44.10;;;;;;5037673;28;20032;-80
2022/08/12 13:56:32;;;;;;;3.85;1.85;;;31.40;44.40;;;;;;5052020;28;20021;-81
2022/08/12 13:59:00;;;;;;;4.65;1.92;;;;;;;;;;5052270;28;20047;-80
2022/08/12 14:01:26;;;;;;;3.47;1.90;;;;;;;;;;5025874;28;20661;-80
2022/08/12 14:03:52;;;;;;;6.43;3.00;;;;;;;;;;5039883;28;20021;-81
2022/08/12 14:06:20;;;;;;;2.97;1.50;;;31.50;43.80;;;;;;5054147;28;20028;-80
2022/08/12 14:08:49;;;;;;;6.00;1.92;;;;;;;;;;5056544;28;20018;-80
2022/08/12 14:11:15;;;;;;;9.35;2.13;;;31.50;43.80;;;;;;5058876;28;20048;-81
2022/08/12 14:13:41;;;;;;;3.25;1.73;;;;;;;;;;5055917;28;20033;-81
2022/08/12 14:16:11;;;;;;;2.70;1.63;;;31.50;43.90;;;;;;5056673;28;20390;-82
2022/08/12 14:18:38;;;;;;;5.47;2.33;;;;;;;;;;5041083;28;20029;-80
2022/08/12 14:21:10;;;;;;;3.72;2.17;;;31.40;43.80;;;;;;5038421;28;20029;-81
2022/08/12 14:23:41;;;;;;;5.35;1.92;;;31.40;43.90;;;;;;5059913;28;20068;-82
2022/08/12 14:26:10;;;;;;;7.82;2.15;;;31.40;44.00;;;;;;5052880;28;20028;-82
2022/08/12 14:28:37;;;;;;;3.92;1.98;;;31.50;43.90;;;;;;5050663;28;20117;-81
2022/08/12 14:31:12;;;;;;;4.78;1.88;;;31.60;43.90;;;;;;5059177;28;20025;-81
2022/08/12 14:33:38;;;;;;;4.85;1.95;;;;;;;;;;5050090;28;20037;-81
2022/08/12 14:36:07;;;;;;;5.75;2.08;;;31.60;44.20;;;;;;5050203;28;20025;-83
2022/08/12 14:38:38;;;;;;;4.82;2.10;;;31.60;44.20;;;;;;5058916;28;20040;-81
2022/08/12 14:41:16;;;;;;;3.92;2.50;;;31.60;43.90;;;;;;5044023;28;20033;-81
2022/08/12 14:43:45;;;;;;;4.53;2.00;;;31.60;44.00;;;;;;5040689;28;20104;-80
2022/08/12 14:46:14;;;;;;;7.05;2.35;;;31.70;44.50;;;;;;5057427;28;20021;-82
2022/08/12 14:48:43;;;;;;;8.73;2.15;;;31.50;44.60;;;;;;5059223;28;20082;-82
2022/08/12 14:51:10;;;;;;;4.13;1.88;;;31.30;44.90;;;;;;5049426;28;20111;-82
2022/08/12 14:53:36;;;;;;;5.45;2.00;;;;;;;;;;5056441;28;20021;-80
2022/08/12 14:56:02;;;;;;;5.97;2.55;;;;;;;;;;5040525;28;20052;-81
2022/08/12 14:58:29;;;;;;;4.43;2.50;;;31.10;44.60;;;;;;5041179;28;20036;-82
2022/08/12 15:03:40;;;;;;;2.47;1.65;;;;;;;;;;5057356;28;20032;-83
2022/08/12 15:06:07;;;;;;;4.20;1.88;;;31.00;44.40;;;;;;5033814;28;20024;-82
2022/08/12 15:08:38;;;;;;;3.65;1.67;;;31.10;43.90;;;;;;5043691;28;20021;-81
2022/08/12 15:11:12;;;;;;;3.05;1.60;;;31.00;43.90;;;;;;5049690;28;20044;-80
2022/08/12 15:13:39;;;;;;;2.97;2.00;;;31.00;44.40;;;;;;5028214;28;20028;-82